Time;durP1;ratioP1;P1;durP2;ratioP2;P2;SDS_P1;SDS_P2;PMS_P1;PMS_P2;Temp;Humidity;BMP_temperature;BMP_pressure;BME280_temperature;BME280_humidity;BME280_pressure;Samples;Min_cycle;Max_cycle;Signal;HPM_P1;HPM_P2
2021/11/24 00:00:36;;;;;;;8.83;4.73;;;9.50;99.90;;;;;;5064920;28;20224;-52
2021/11/24 00:03:03;;;;;;;8.27;5.07;;;9.60;99.90;;;;;;5081306;28;20204;-52
2021/11/24 00:05:30;;;;;;;6.10;4.80;;;9.50;99.90;;;;;;5074416;28;20253;-53
2021/11/24 00:07:58;;;;;;;5.53;4.40;;;9.50;99.90;;;;;;5080710;28;20275;-52
2021/11/24 00:10:29;;;;;;;6.33;4.37;;;9.30;99.90;;;;;;5072927;28;20286;-52
2021/11/24 00:12:56;;;;;;;8.13;4.00;;;9.10;99.90;;;;;;5081464;28;20561;-53
2021/11/24 00:15:23;;;;;;;9.10;4.50;;;9.20;99.90;;;;;;5083411;28;20231;-53
2021/11/24 00:17:51;;;;;;;7.73;4.80;;;9.30;99.90;;;;;;5082428;28;20273;-52
2021/11/24 00:20:17;;;;;;;8.57;4.90;;;9.50;99.90;;;;;;5073800;28;20254;-52
2021/11/24 00:22:44;;;;;;;7.30;5.60;;;9.50;99.90;;;;;;5081302;28;20593;-52
2021/11/24 00:25:11;;;;;;;8.07;6.13;;;9.50;99.90;;;;;;5082310;28;20636;-54
2021/11/24 00:27:38;;;;;;;9.97;7.63;;;9.50;99.90;;;;;;5078488;28;20240;-51
2021/11/24 00:30:08;;;;;;;10.83;8.43;;;9.40;99.90;;;;;;5081480;28;20214;-52
2021/11/24 00:32:35;;;;;;;11.53;7.23;;;9.50;99.90;;;;;;5082585;28;20198;-52
2021/11/24 00:35:04;;;;;;;8.53;6.63;;;9.60;99.90;;;;;;5081703;28;20237;-52
2021/11/24 00:37:32;;;;;;;8.97;6.47;;;9.60;99.90;;;;;;5079435;28;20194;-52
2021/11/24 00:40:03;;;;;;;8.17;7.10;;;9.50;99.90;;;;;;5082901;28;20557;-53
2021/11/24 00:42:30;;;;;;;9.37;8.43;;;9.50;99.90;;;;;;5079971;28;20243;-53
2021/11/24 00:44:57;;;;;;;10.47;9.37;;;9.70;99.90;;;;;;5079876;28;20696;-52
2021/11/24 00:47:23;;;;;;;13.73;9.30;;;9.60;99.90;;;;;;5080647;28;20203;-52
2021/11/24 00:49:50;;;;;;;12.17;9.60;;;9.60;99.90;;;;;;5064354;28;20233;-52
2021/11/24 00:52:17;;;;;;;11.83;9.53;;;9.50;99.90;;;;;;5079798;28;20297;-52
2021/11/24 00:54:44;;;;;;;11.60;9.70;;;9.50;99.90;;;;;;5069698;28;20234;-51
2021/11/24 00:57:11;;;;;;;12.27;9.90;;;9.60;99.90;;;;;;5080460;28;20218;-54
2021/11/24 00:59:38;;;;;;;13.87;10.37;;;9.50;99.90;;;;;;5082818;28;20238;-53
2021/11/24 01:02:05;;;;;;;13.57;10.70;;;9.60;99.90;;;;;;5081680;28;20193;-52
2021/11/24 01:04:33;;;;;;;11.30;9.90;;;9.50;99.90;;;;;;5081990;28;21945;-51
2021/11/24 01:07:00;;;;;;;13.20;10.80;;;9.50;99.90;;;;;;5082622;28;20290;-52
2021/11/24 01:09:27;;;;;;;14.53;11.07;;;9.50;99.90;;;;;;5088239;28;20240;-52
2021/11/24 01:11:55;;;;;;;13.30;10.40;;;9.50;99.90;;;;;;5084637;28;20203;-54
2021/11/24 01:14:22;;;;;;;12.33;10.70;;;9.50;99.90;;;;;;5081299;28;20621;-52
2021/11/24 01:16:49;;;;;;;14.03;11.10;;;9.40;99.90;;;;;;5081097;28;20237;-52
2021/11/24 01:19:17;;;;;;;12.90;11.20;;;9.50;99.90;;;;;;5064681;28;20221;-51
2021/11/24 01:21:45;;;;;;;16.33;11.90;;;9.30;99.90;;;;;;5071626;28;20237;-52
2021/11/24 01:24:12;;;;;;;13.30;10.50;;;9.40;99.90;;;;;;5073768;28;20341;-52
2021/11/24 01:26:39;;;;;;;16.20;11.47;;;9.40;99.90;;;;;;5070095;28;20234;-52
2021/11/24 01:29:07;;;;;;;15.53;11.40;;;9.50;99.90;;;;;;5084025;28;20211;-52
2021/11/24 01:31:33;;;;;;;14.03;11.17;;;9.40;99.90;;;;;;5062375;28;20211;-54
2021/11/24 01:34:00;;;;;;;14.17;11.33;;;9.40;99.90;;;;;;5079452;28;20199;-52
2021/11/24 01:36:27;;;;;;;16.13;11.37;;;9.50;99.90;;;;;;5082100;28;20529;-52
2021/11/24 01:38:54;;;;;;;14.93;11.90;;;9.50;99.90;;;;;;5078917;28;20218;-52
2021/11/24 01:41:21;;;;;;;15.90;12.20;;;9.50;99.90;;;;;;5077661;28;20289;-51
2021/11/24 01:43:48;;;;;;;15.93;12.67;;;9.50;99.90;;;;;;5075845;28;20699;-52
2021/11/24 01:46:15;;;;;;;16.00;12.50;;;9.60;99.90;;;;;;5065130;28;20928;-52
2021/11/24 01:48:42;;;;;;;14.70;11.90;;;9.60;99.90;;;;;;5066787;28;20322;-52
2021/11/24 01:51:08;;;;;;;14.73;12.10;;;9.60;99.90;;;;;;5067887;28;20211;-51
2021/11/24 01:53:36;;;;;;;14.43;11.03;;;9.50;99.90;;;;;;5072418;28;20237;-51
2021/11/24 01:56:03;;;;;;;14.90;13.30;;;9.50;99.90;;;;;;5080405;28;20260;-54
2021/11/24 01:58:31;;;;;;;18.17;12.27;;;9.50;99.90;;;;;;5079970;28;20246;-52
2021/11/24 02:00:58;;;;;;;16.57;12.97;;;9.40;99.90;;;;;;5079271;28;20230;-52
2021/11/24 02:03:26;;;;;;;17.00;12.77;;;9.30;99.90;;;;;;5079655;28;20213;-53
2021/11/24 02:05:53;;;;;;;18.60;13.90;;;9.40;99.90;;;;;;5076189;28;20195;-51
2021/11/24 02:08:20;;;;;;;20.57;14.80;;;9.50;99.90;;;;;;5076383;28;20225;-52
2021/11/24 02:10:47;;;;;;;17.77;14.23;;;9.50;99.90;;;;;;5079501;28;20194;-51
2021/11/24 02:13:14;;;;;;;15.83;13.60;;;9.50;99.90;;;;;;5077140;28;20245;-51
2021/11/24 02:15:41;;;;;;;18.47;13.87;;;9.40;99.90;;;;;;5078745;28;20199;-52
2021/11/24 02:18:08;;;;;;;16.67;14.00;;;9.50;99.90;;;;;;5080103;28;20959;-53
2021/11/24 02:20:41;;;;;;;18.00;13.83;;;9.40;99.90;;;;;;5082381;28;20418;-53
2021/11/24 02:23:11;;;;;;;18.20;13.17;;;9.40;99.90;;;;;;5080998;28;20235;-52
2021/11/24 02:25:39;;;;;;;20.30;15.00;;;9.40;99.90;;;;;;5078920;28;20304;-51
2021/11/24 02:28:07;;;;;;;19.23;14.37;;;9.50;99.90;;;;;;5079979;28;20226;-52
2021/11/24 02:30:34;;;;;;;16.73;14.10;;;9.40;99.90;;;;;;5067341;28;20224;-50
2021/11/24 02:33:02;;;;;;;18.73;14.00;;;9.30;99.90;;;;;;5079145;28;20268;-50
2021/11/24 02:35:29;;;;;;;18.53;14.90;;;9.30;99.90;;;;;;5080131;28;20376;-50
2021/11/24 02:37:55;;;;;;;18.67;14.23;;;9.30;99.90;;;;;;5080630;28;20262;-52
2021/11/24 02:40:29;;;;;;;19.97;14.73;;;9.30;99.90;;;;;;5078645;28;20217;-51
2021/11/24 02:42:56;;;;;;;16.77;13.60;;;9.30;99.90;;;;;;5081234;28;20672;-50
2021/11/24 02:45:23;;;;;;;20.37;15.70;;;9.30;99.90;;;;;;5080297;28;20215;-52
2021/11/24 02:47:50;;;;;;;20.00;14.30;;;9.30;99.90;;;;;;5078435;28;20202;-50
2021/11/24 02:50:17;;;;;;;16.20;13.63;;;9.20;99.90;;;;;;5081181;28;20289;-51
2021/11/24 02:52:49;;;;;;;15.33;12.73;;;9.30;99.90;;;;;;5078457;28;20205;-53
2021/11/24 02:55:17;;;;;;;15.03;12.60;;;9.30;99.90;;;;;;5079823;28;20249;-52
2021/11/24 02:57:46;;;;;;;16.87;12.97;;;9.30;99.90;;;;;;5081049;28;20242;-52
2021/11/24 03:00:20;;;;;;;17.40;14.43;;;9.40;99.90;;;;;;5083122;28;20207;-50
2021/11/24 03:02:48;;;;;;;19.17;15.20;;;9.40;99.90;;;;;;5078106;28;20201;-53
2021/11/24 03:05:17;;;;;;;17.63;13.80;;;9.40;99.90;;;;;;5079202;28;20214;-50
2021/11/24 03:07:45;;;;;;;23.13;14.10;;;9.30;99.90;;;;;;5074358;28;20272;-50
2021/11/24 03:10:12;;;;;;;18.73;14.90;;;9.30;99.90;;;;;;5084602;28;20245;-51
2021/11/24 03:12:39;;;;;;;21.67;15.33;;;9.30;99.90;;;;;;5081930;28;20292;-51
2021/11/24 03:15:07;;;;;;;17.47;14.80;;;9.30;99.90;;;;;;5082255;28;20222;-52
2021/11/24 03:17:35;;;;;;;17.37;14.37;;;9.30;99.90;;;;;;5081207;28;20256;-51
2021/11/24 03:20:07;;;;;;;17.20;14.10;;;9.20;99.90;;;;;;5083040;28;20258;-51
2021/11/24 03:22:35;;;;;;;18.50;14.67;;;9.20;99.90;;;;;;5079686;28;20230;-51
2021/11/24 03:25:03;;;;;;;18.60;15.20;;;9.20;99.90;;;;;;5067800;28;20237;-53
2021/11/24 03:27:35;;;;;;;16.20;14.10;;;9.20;99.90;;;;;;5073118;28;20549;-51
2021/11/24 03:30:09;;;;;;;19.73;15.07;;;9.20;99.90;;;;;;5083453;28;20277;-51
2021/11/24 03:32:36;;;;;;;20.17;14.60;;;9.20;99.90;;;;;;5083037;28;20252;-50
2021/11/24 03:35:04;;;;;;;17.80;13.87;;;9.20;99.90;;;;;;5084009;28;20735;-53
2021/11/24 03:37:31;;;;;;;20.23;14.90;;;9.20;99.90;;;;;;5081397;28;20218;-50
2021/11/24 03:39:58;;;;;;;20.47;14.23;;;9.20;99.90;;;;;;5082939;28;20227;-51
2021/11/24 03:42:25;;;;;;;17.40;13.93;;;9.20;99.90;;;;;;5072136;28;20195;-51
2021/11/24 03:44:52;;;;;;;17.03;14.53;;;9.20;99.90;;;;;;5083592;28;20206;-53
2021/11/24 03:47:19;;;;;;;18.47;14.47;;;9.20;99.90;;;;;;5080399;28;20202;-52
2021/11/24 03:49:46;;;;;;;16.63;14.03;;;9.20;99.90;;;;;;5078637;28;20202;-51
2021/11/24 03:52:13;;;;;;;17.90;14.80;;;9.20;99.90;;;;;;5079922;28;20216;-51
2021/11/24 03:54:40;;;;;;;18.93;14.57;;;9.20;99.90;;;;;;5073230;28;20198;-50
2021/11/24 03:57:07;;;;;;;16.30;13.23;;;9.30;99.90;;;;;;5082411;28;20723;-51
2021/11/24 03:59:34;;;;;;;15.97;13.53;;;9.30;99.90;;;;;;5080694;28;20239;-53
2021/11/24 04:02:01;;;;;;;17.97;13.40;;;9.20;99.90;;;;;;5080960;28;20233;-52
2021/11/24 04:04:28;;;;;;;15.67;12.50;;;9.20;99.90;;;;;;5081721;28;20206;-53
2021/11/24 04:06:54;;;;;;;16.13;13.27;;;9.10;99.90;;;;;;5080901;28;20657;-52
2021/11/24 04:09:21;;;;;;;18.50;14.47;;;9.10;99.90;;;;;;5082294;28;20293;-51
2021/11/24 04:11:48;;;;;;;17.13;14.70;;;9.20;99.90;;;;;;5083420;28;20247;-52
2021/11/24 04:14:15;;;;;;;18.77;14.33;;;9.20;99.90;;;;;;5081247;28;20296;-51
2021/11/24 04:16:42;;;;;;;17.50;12.57;;;9.10;99.90;;;;;;5081177;28;20352;-51
2021/11/24 04:19:09;;;;;;;15.80;13.43;;;9.10;99.90;;;;;;5082454;28;20229;-51
2021/11/24 04:21:35;;;;;;;15.50;13.10;;;9.10;99.90;;;;;;5080645;28;20744;-53
2021/11/24 04:24:03;;;;;;;15.37;12.57;;;9.30;99.90;;;;;;5045880;28;20287;-51
2021/11/24 04:26:29;;;;;;;16.33;13.67;;;9.30;99.90;;;;;;5081491;28;20202;-53
2021/11/24 04:28:56;;;;;;;17.30;12.77;;;9.30;99.90;;;;;;5081447;28;20661;-52
2021/11/24 04:31:23;;;;;;;16.87;12.97;;;9.00;99.90;;;;;;5062465;28;20297;-50
2021/11/24 04:33:50;;;;;;;17.50;13.03;;;8.90;99.90;;;;;;5083096;28;20585;-51
2021/11/24 04:36:17;;;;;;;16.93;14.13;;;8.80;99.90;;;;;;5082078;28;20259;-53
2021/11/24 04:38:44;;;;;;;16.83;12.93;;;8.80;99.90;;;;;;5079700;28;20205;-51
2021/11/24 04:41:11;;;;;;;17.13;13.37;;;9.00;99.90;;;;;;5082871;28;20334;-51
2021/11/24 04:43:46;;;;;;;18.67;14.27;;;9.10;99.90;;;;;;5074434;28;20244;-50
2021/11/24 04:46:16;;;;;;;18.67;14.90;;;9.00;99.90;;;;;;5083350;28;20221;-51
2021/11/24 04:48:43;;;;;;;16.50;13.57;;;8.90;99.90;;;;;;5083475;28;20198;-51
2021/11/24 04:51:10;;;;;;;17.83;14.50;;;8.70;99.90;;;;;;5079602;28;20237;-50
2021/11/24 04:53:37;;;;;;;19.57;14.57;;;8.50;99.90;;;;;;5080060;28;20381;-53
2021/11/24 04:56:05;;;;;;;17.67;13.87;;;8.40;99.90;;;;;;5080337;28;20358;-52
2021/11/24 04:58:34;;;;;;;17.57;13.73;;;8.40;99.90;;;;;;5081016;28;21039;-50
2021/11/24 05:01:01;;;;;;;18.90;14.70;;;8.40;99.90;;;;;;5080058;28;20210;-51
2021/11/24 05:03:28;;;;;;;17.23;14.03;;;8.70;99.90;;;;;;5079796;28;20186;-52
2021/11/24 05:05:55;;;;;;;18.23;14.43;;;8.80;99.90;;;;;;5082656;28;20210;-53
2021/11/24 05:08:22;;;;;;;18.67;14.53;;;8.90;99.90;;;;;;5082119;28;20683;-52
2021/11/24 05:10:48;;;;;;;20.33;15.10;;;8.80;99.90;;;;;;5080426;28;20208;-51
2021/11/24 05:13:15;;;;;;;19.30;15.37;;;8.80;99.90;;;;;;5082191;28;20713;-53
2021/11/24 05:15:43;;;;;;;20.57;14.80;;;8.90;99.90;;;;;;5064261;28;20294;-50
2021/11/24 05:18:22;;;;;;;18.80;14.90;;;8.90;99.90;;;;;;5080221;28;20584;-51
2021/11/24 05:20:49;;;;;;;18.80;15.53;;;8.90;99.90;;;;;;5078041;28;20215;-50
2021/11/24 05:23:17;;;;;;;19.63;16.17;;;9.00;99.90;;;;;;5082886;28;20230;-50
2021/11/24 05:25:44;;;;;;;18.77;15.23;;;9.00;99.90;;;;;;5080464;28;20709;-50
2021/11/24 05:28:11;;;;;;;18.93;15.73;;;9.00;99.90;;;;;;5078273;28;20190;-51
2021/11/24 05:30:38;;;;;;;18.70;15.30;;;9.00;99.90;;;;;;5079656;28;20248;-50
2021/11/24 05:33:05;;;;;;;19.43;15.80;;;9.00;99.90;;;;;;5080423;28;20198;-51
2021/11/24 05:35:32;;;;;;;20.77;17.27;;;9.10;99.90;;;;;;5081376;28;20298;-51
2021/11/24 05:37:59;;;;;;;21.00;15.93;;;9.10;99.90;;;;;;5080800;28;20207;-52
2021/11/24 05:40:26;;;;;;;20.70;16.40;;;9.10;99.90;;;;;;5079222;28;20301;-50
2021/11/24 05:42:53;;;;;;;20.93;16.80;;;9.10;99.90;;;;;;5079501;28;20719;-52
2021/11/24 05:48:08;;;;;;;19.60;16.43;;;9.10;99.90;;;;;;5073077;28;20324;-51
2021/11/24 05:50:43;;;;;;;19.93;17.17;;;9.00;99.90;;;;;;5072946;28;20237;-52
2021/11/24 05:53:10;;;;;;;19.63;16.57;;;9.10;99.90;;;;;;5071129;28;20295;-49
2021/11/24 05:55:37;;;;;;;22.53;17.80;;;9.10;99.90;;;;;;5069036;28;20248;-52
2021/11/24 05:58:04;;;;;;;20.87;17.70;;;9.00;99.90;;;;;;5071322;28;20206;-51
2021/11/24 06:00:33;;;;;;;23.80;17.73;;;9.10;99.90;;;;;;5080228;28;20246;-52
2021/11/24 06:03:00;;;;;;;20.57;16.67;;;9.10;99.90;;;;;;5072325;28;20233;-51
2021/11/24 06:05:27;;;;;;;19.97;16.27;;;9.00;99.90;;;;;;5081028;28;20202;-51
2021/11/24 06:07:55;;;;;;;19.77;16.37;;;9.00;99.90;;;;;;5080292;28;20199;-50
2021/11/24 06:10:23;;;;;;;22.10;17.20;;;8.90;99.90;;;;;;5081384;28;20238;-51
2021/11/24 06:12:50;;;;;;;25.53;18.90;;;8.70;99.90;;;;;;5080898;28;20206;-52
2021/11/24 06:15:17;;;;;;;22.43;18.27;;;8.50;99.90;;;;;;5078354;28;20193;-51
2021/11/24 06:17:45;;;;;;;25.17;18.63;;;8.50;99.90;;;;;;5076195;28;20856;-50
2021/11/24 06:20:14;;;;;;;21.97;17.77;;;8.60;99.90;;;;;;5075607;28;20230;-51
2021/11/24 06:22:42;;;;;;;21.60;17.17;;;8.50;99.90;;;;;;5068732;28;20222;-51
2021/11/24 06:25:11;;;;;;;19.80;17.17;;;8.50;99.90;;;;;;5058614;28;20230;-51
2021/11/24 06:27:41;;;;;;;21.53;16.57;;;8.50;99.90;;;;;;5074374;28;20197;-50
2021/11/24 06:30:15;;;;;;;22.37;17.97;;;8.50;99.90;;;;;;5074576;28;20313;-50
2021/11/24 06:32:42;;;;;;;20.97;16.60;;;8.50;99.90;;;;;;5078280;28;20296;-50
2021/11/24 06:35:10;;;;;;;20.30;16.43;;;8.50;99.90;;;;;;5085989;28;20222;-51
2021/11/24 06:37:37;;;;;;;19.93;16.67;;;8.50;99.90;;;;;;5078107;28;20301;-53
2021/11/24 06:40:06;;;;;;;19.03;14.83;;;8.50;99.90;;;;;;5079255;28;20295;-51
2021/11/24 06:42:32;;;;;;;17.67;15.10;;;8.40;99.90;;;;;;5073757;28;20238;-52
2021/11/24 06:44:59;;;;;;;19.93;15.73;;;8.40;99.90;;;;;;5059931;28;20303;-50
2021/11/24 06:47:26;;;;;;;20.33;16.47;;;8.40;99.90;;;;;;5073798;28;20232;-51
2021/11/24 06:49:53;;;;;;;19.17;16.10;;;8.40;99.90;;;;;;5072464;28;20671;-52
2021/11/24 06:52:20;;;;;;;21.33;15.90;;;8.40;99.90;;;;;;5070622;28;20269;-51
2021/11/24 06:54:47;;;;;;;19.33;16.90;;;8.30;99.90;;;;;;5072445;28;20858;-53
2021/11/24 06:57:14;;;;;;;21.80;16.90;;;8.40;99.90;;;;;;5068819;28;20206;-51
2021/11/24 06:59:41;;;;;;;22.13;17.10;;;8.40;99.90;;;;;;5072779;28;20207;-51
2021/11/24 07:02:08;;;;;;;20.90;16.07;;;8.40;99.90;;;;;;5074223;28;20203;-52
2021/11/24 07:04:38;;;;;;;17.87;15.77;;;8.50;99.90;;;;;;5080824;28;20256;-52
2021/11/24 07:07:05;;;;;;;19.53;16.60;;;8.50;99.90;;;;;;5060193;28;20215;-51
2021/11/24 07:09:32;;;;;;;20.50;15.33;;;8.50;99.90;;;;;;5082313;28;20277;-51
2021/11/24 07:11:59;;;;;;;21.40;17.27;;;8.50;99.90;;;;;;5077905;28;20532;-53
2021/11/24 07:14:26;;;;;;;17.93;15.13;;;8.60;99.90;;;;;;5083589;28;20229;-52
2021/11/24 07:16:53;;;;;;;18.80;16.00;;;8.60;99.90;;;;;;5079510;28;20511;-50
2021/11/24 07:19:22;;;;;;;18.93;14.83;;;8.50;99.90;;;;;;5077185;28;20232;-51
2021/11/24 07:21:49;;;;;;;21.17;16.57;;;8.50;99.90;;;;;;5076251;28;20322;-52
2021/11/24 07:24:17;;;;;;;21.20;16.53;;;8.60;99.90;;;;;;5085387;22;20247;-80
2021/11/24 07:26:44;;;;;;;20.03;17.23;;;8.50;99.90;;;;;;5057617;28;20683;-80
2021/11/24 07:29:14;;;;;;;22.67;17.60;;;8.50;99.90;;;;;;5024125;28;20238;-80
2021/11/24 07:31:41;;;;;;;22.90;17.20;;;8.60;99.90;;;;;;5033992;28;20343;-79
2021/11/24 07:36:09;;;;;;;21.97;16.67;;;8.60;99.90;;;;;;5028482;28;20646;-51
2021/11/24 07:38:36;;;;;;;24.70;17.80;;;8.50;99.90;;;;;;5020866;28;20220;-52
2021/11/24 07:41:03;;;;;;;20.80;17.67;;;8.40;99.90;;;;;;5022714;28;20247;-51
2021/11/24 07:43:31;;;;;;;20.57;17.73;;;8.50;99.90;;;;;;5027185;28;20548;-51
2021/11/24 07:45:58;;;;;;;23.10;18.57;;;8.50;99.90;;;;;;5030582;28;20706;-52
2021/11/24 07:48:25;;;;;;;22.57;17.87;;;8.50;99.90;;;;;;5041698;28;20261;-51
2021/11/24 07:50:52;;;;;;;21.97;18.07;;;8.40;99.90;;;;;;5024144;28;20223;-51
2021/11/24 07:53:19;;;;;;;22.93;18.37;;;8.40;99.90;;;;;;5029260;28;20248;-52
2021/11/24 07:55:46;;;;;;;27.53;20.00;;;8.50;99.90;;;;;;5023438;28;20220;-53
2021/11/24 07:58:14;;;;;;;24.77;18.97;;;8.50;99.90;;;;;;5030031;28;20207;-51
2021/11/24 08:00:41;;;;;;;26.13;20.03;;;8.40;99.90;;;;;;5031555;28;20229;-51
2021/11/24 08:03:08;;;;;;;28.70;19.90;;;8.40;99.90;;;;;;5032733;28;20339;-51
2021/11/24 08:05:35;;;;;;;26.30;19.20;;;8.30;99.90;;;;;;5028567;28;20205;-51
2021/11/24 08:08:02;;;;;;;25.67;19.23;;;8.50;99.90;;;;;;5016255;28;20290;-52
2021/11/24 08:10:28;;;;;;;26.53;20.27;;;8.60;99.90;;;;;;5023753;28;20200;-51
2021/11/24 08:12:55;;;;;;;24.80;20.20;;;8.60;99.90;;;;;;5027514;28;20370;-52
2021/11/24 08:15:23;;;;;;;22.93;18.00;;;8.60;99.90;;;;;;5028980;28;20214;-52
2021/11/24 08:17:50;;;;;;;22.23;17.20;;;8.50;99.90;;;;;;5029973;28;20835;-54
2021/11/24 08:20:17;;;;;;;24.27;17.83;;;8.40;99.90;;;;;;5029560;28;20203;-52
2021/11/24 08:22:44;;;;;;;21.03;16.40;;;8.40;99.90;;;;;;5028588;28;20238;-51
2021/11/24 08:25:11;;;;;;;22.23;17.40;;;8.40;99.90;;;;;;5028933;28;20208;-51
2021/11/24 08:27:38;;;;;;;23.83;18.37;;;8.40;99.90;;;;;;5031033;28;20237;-52
2021/11/24 08:30:07;;;;;;;22.50;17.10;;;8.50;99.90;;;;;;5031508;28;20285;-51
2021/11/24 08:32:35;;;;;;;24.13;17.83;;;8.50;99.90;;;;;;5031845;28;20238;-52
2021/11/24 08:35:04;;;;;;;22.17;17.93;;;8.50;99.90;;;;;;5032773;28;20297;-51
2021/11/24 08:37:31;;;;;;;23.70;18.10;;;8.50;99.90;;;;;;5032817;28;20262;-51
2021/11/24 08:39:58;;;;;;;23.00;17.47;;;8.40;99.90;;;;;;5033660;28;20207;-52
2021/11/24 08:42:26;;;;;;;23.00;16.83;;;8.50;99.90;;;;;;5032290;28;20707;-50
2021/11/24 08:44:53;;;;;;;24.27;18.60;;;8.50;99.90;;;;;;5032064;28;20869;-53
2021/11/24 08:47:21;;;;;;;23.13;17.90;;;8.50;99.90;;;;;;5018918;28;20214;-51
2021/11/24 08:49:47;;;;;;;24.93;18.43;;;8.40;99.90;;;;;;5018962;28;20203;-52
2021/11/24 08:52:14;;;;;;;24.53;17.57;;;8.50;99.90;;;;;;5018846;28;20252;-50
2021/11/24 08:54:41;;;;;;;22.60;18.30;;;8.50;99.90;;;;;;5020439;28;20215;-51
2021/11/24 08:57:08;;;;;;;24.87;18.80;;;8.40;99.90;;;;;;5017169;28;20200;-50
2021/11/24 08:59:35;;;;;;;25.93;17.80;;;8.50;99.90;;;;;;5013407;28;20200;-52
2021/11/24 09:02:02;;;;;;;22.47;17.97;;;8.50;99.90;;;;;;5015499;28;20246;-51
2021/11/24 09:04:29;;;;;;;24.13;18.20;;;8.60;99.90;;;;;;5018256;28;20261;-50
2021/11/24 09:06:56;;;;;;;24.57;18.13;;;8.70;99.90;;;;;;5018299;28;20240;-51
2021/11/24 09:09:22;;;;;;;26.73;19.00;;;8.70;99.90;;;;;;5013595;28;20242;-53
2021/11/24 09:11:49;;;;;;;28.03;20.17;;;8.70;99.90;;;;;;5011620;28;20246;-52
2021/11/24 09:14:16;;;;;;;28.73;22.00;;;8.70;99.90;;;;;;5018093;28;20628;-53
2021/11/24 09:17:03;;;;;;;29.90;21.03;;;8.70;99.90;;;;;;5018672;28;20730;-51
2021/11/24 09:19:30;;;;;;;27.13;20.17;;;8.60;99.90;;;;;;5013910;28;20859;-51
2021/11/24 09:21:57;;;;;;;27.00;20.23;;;8.70;99.90;;;;;;5015981;28;20997;-53
2021/11/24 09:24:27;;;;;;;26.67;19.60;;;8.80;99.90;;;;;;5018136;28;20324;-52
2021/11/24 09:27:11;;;;;;;27.07;18.93;;;8.70;99.90;;;;;;5018121;28;20704;-52
2021/11/24 09:29:38;;;;;;;25.93;16.67;;;8.60;99.90;;;;;;5016016;28;20628;-52
2021/11/24 09:32:05;;;;;;;25.60;16.80;;;8.60;99.90;;;;;;5012998;28;20197;-51
2021/11/24 09:34:32;;;;;;;25.77;17.10;;;8.50;99.90;;;;;;5016595;28;20657;-52
2021/11/24 09:36:59;;;;;;;23.77;16.67;;;8.50;99.90;;;;;;5015243;28;20288;-50
2021/11/24 09:39:26;;;;;;;25.40;18.47;;;8.70;99.90;;;;;;5010512;28;20215;-51
2021/11/24 09:41:57;;;;;;;24.27;16.97;;;8.80;99.90;;;;;;5013746;28;20202;-54
2021/11/24 09:44:24;;;;;;;25.47;16.70;;;8.80;99.90;;;;;;5014823;28;20208;-52
2021/11/24 09:46:51;;;;;;;24.07;16.47;;;8.90;99.90;;;;;;5010699;28;21235;-51
2021/11/24 09:49:20;;;;;;;24.93;15.87;;;8.70;99.90;;;;;;5015870;28;20327;-50
2021/11/24 09:52:07;;;;;;;25.60;14.70;;;8.70;99.90;;;;;;5012361;28;20208;-51
2021/11/24 09:54:35;;;;;;;21.77;14.50;;;8.50;99.90;;;;;;5016415;28;20561;-52
2021/11/24 09:57:02;;;;;;;23.60;14.77;;;8.60;99.90;;;;;;5015290;28;20291;-53
2021/11/24 09:59:29;;;;;;;24.03;14.93;;;8.70;99.90;;;;;;5016070;28;20678;-52
2021/11/24 10:01:57;;;;;;;20.67;13.47;;;8.70;99.90;;;;;;5016074;28;20279;-52
2021/11/24 10:04:24;;;;;;;24.87;14.10;;;8.60;99.90;;;;;;5017704;28;20666;-52
2021/11/24 10:06:51;;;;;;;24.10;14.93;;;8.70;99.90;;;;;;5017207;28;20709;-52
2021/11/24 10:09:18;;;;;;;26.67;14.87;;;8.60;99.90;;;;;;5015086;28;20262;-50
2021/11/24 10:11:45;;;;;;;22.50;14.73;;;8.70;99.90;;;;;;5011638;28;20267;-51
2021/11/24 10:14:12;;;;;;;21.37;14.60;;;8.80;99.90;;;;;;5172903;22;20573;-52
2021/11/24 10:16:39;;;;;;;21.30;13.80;;;8.90;99.90;;;;;;5017040;28;20311;-51
2021/11/24 10:19:13;;;;;;;19.73;13.60;;;8.90;99.90;;;;;;5025393;28;20255;-52
2021/11/24 10:22:00;;;;;;;22.07;13.27;;;8.80;99.90;;;;;;5021831;28;20202;-54
2021/11/24 10:24:41;;;;;;;21.60;13.37;;;8.80;99.90;;;;;;5024503;28;20201;-54
2021/11/24 10:27:12;;;;;;;21.37;13.73;;;8.80;99.90;;;;;;5024416;28;20255;-53
2021/11/24 10:29:58;;;;;;;19.70;13.37;;;8.80;99.90;;;;;;5022540;28;20213;-53
2021/11/24 10:32:27;;;;;;;21.50;13.40;;;8.90;99.90;;;;;;5022305;28;20683;-59
2021/11/24 10:34:57;;;;;;;19.73;13.23;;;8.90;99.90;;;;;;5021471;28;20281;-51
2021/11/24 10:37:25;;;;;;;23.27;13.83;;;9.00;99.90;;;;;;5022237;28;20203;-52
2021/11/24 10:40:05;;;;;;;21.03;13.20;;;9.00;99.90;;;;;;5021880;28;20204;-55
2021/11/24 10:42:34;;;;;;;25.00;14.83;;;9.00;99.90;;;;;;5020954;28;20228;-52
2021/11/24 10:45:13;;;;;;;23.67;13.13;;;9.00;99.90;;;;;;5019741;28;20224;-53
2021/11/24 10:47:53;;;;;;;22.40;15.20;;;9.10;99.90;;;;;;5021537;28;20204;-52
2021/11/24 10:50:26;;;;;;;22.97;14.13;;;9.10;99.90;;;;;;5022637;28;20351;-54
2021/11/24 10:53:19;;;;;;;20.53;13.67;;;9.10;99.90;;;;;;5021388;28;20286;-53
2021/11/24 10:55:46;;;;;;;20.80;14.00;;;9.10;99.90;;;;;;5019355;28;20304;-52
2021/11/24 10:58:24;;;;;;;20.67;13.70;;;9.20;99.90;;;;;;5020921;28;20247;-51
2021/11/24 11:00:55;;;;;;;23.47;14.60;;;9.20;99.90;;;;;;5018802;28;20228;-55
2021/11/24 11:03:40;;;;;;;24.43;15.10;;;9.10;99.90;;;;;;5019763;28;20200;-54
2021/11/24 11:06:07;;;;;;;22.37;14.40;;;8.90;99.90;;;;;;5024612;28;20284;-53
2021/11/24 11:08:34;;;;;;;24.87;16.73;;;8.90;99.90;;;;;;5021900;28;20535;-54
2021/11/24 11:11:36;;;;;;;22.90;14.47;;;9.00;99.90;;;;;;5004794;28;20204;-55
2021/11/24 11:14:13;;;;;;;23.27;14.53;;;9.10;99.90;;;;;;4995182;28;20367;-52
2021/11/24 11:16:43;;;;;;;22.23;14.47;;;9.20;99.90;;;;;;4994887;28;20309;-54
2021/11/24 11:19:10;;;;;;;23.83;14.80;;;9.20;99.90;;;;;;4997222;28;20233;-55
2021/11/24 11:21:37;;;;;;;23.20;14.37;;;9.30;99.90;;;;;;4997582;28;20205;-54
2021/11/24 11:24:08;;;;;;;23.37;14.77;;;9.10;99.90;;;;;;4997573;28;20208;-54
2021/11/24 11:26:35;;;;;;;25.23;14.93;;;9.20;99.90;;;;;;4997413;28;20651;-52
2021/11/24 11:29:02;;;;;;;23.37;15.27;;;9.20;99.90;;;;;;4993437;28;20212;-53
2021/11/24 11:31:29;;;;;;;22.13;15.13;;;9.20;99.90;;;;;;4994438;28;20210;-56
2021/11/24 11:33:59;;;;;;;22.90;14.90;;;9.30;99.90;;;;;;4994151;28;20199;-54
2021/11/24 11:36:26;;;;;;;26.17;17.03;;;9.30;99.90;;;;;;4994028;28;20220;-52
2021/11/24 11:38:57;;;;;;;25.13;15.60;;;9.40;99.90;;;;;;4993847;28;20224;-54
2021/11/24 11:41:30;;;;;;;26.43;15.57;;;9.40;99.90;;;;;;4997404;28;20205;-53
2021/11/24 11:44:19;;;;;;;24.03;15.53;;;9.30;99.90;;;;;;4993672;28;20214;-53
2021/11/24 11:47:05;;;;;;;25.93;16.13;;;9.30;99.90;;;;;;4994424;28;20200;-51
2021/11/24 11:49:36;;;;;;;26.13;17.20;;;9.30;99.90;;;;;;4996974;28;20209;-52
2021/11/24 11:52:13;;;;;;;27.73;17.63;;;9.40;99.90;;;;;;4997283;28;21537;-54
2021/11/24 11:54:40;;;;;;;29.30;17.50;;;9.40;99.90;;;;;;4998789;28;20207;-52
2021/11/24 11:57:18;;;;;;;29.87;18.20;;;9.50;99.90;;;;;;4997147;28;20238;-51
2021/11/24 12:00:04;;;;;;;32.00;19.00;;;9.40;99.90;;;;;;4996103;28;20275;-53
2021/11/24 12:02:30;;;;;;;30.50;17.80;;;9.40;99.90;;;;;;4996935;28;20253;-54
2021/11/24 12:05:04;;;;;;;25.23;17.23;;;9.50;99.90;;;;;;4998447;28;20295;-52
2021/11/24 12:07:31;;;;;;;26.90;16.77;;;9.40;99.90;;;;;;4996167;28;20568;-51
2021/11/24 12:10:00;;;;;;;27.80;17.23;;;9.50;99.90;;;;;;4996174;28;20820;-56
2021/11/24 12:12:34;;;;;;;29.83;17.67;;;9.30;99.90;;;;;;4995786;28;20260;-56
2021/11/24 12:15:34;;;;;;;28.07;17.83;;;9.50;99.90;;;;;;4995601;28;20234;-58
2021/11/24 12:18:11;;;;;;;29.47;18.30;;;9.60;99.90;;;;;;4994550;28;20207;-55
2021/11/24 12:20:41;;;;;;;29.67;18.30;;;9.60;99.90;;;;;;4994830;28;20197;-52
2021/11/24 12:23:28;;;;;;;35.10;20.23;;;9.60;99.90;;;;;;5000508;28;20284;-53
2021/11/24 12:25:56;;;;;;;29.97;19.63;;;9.50;99.90;;;;;;5001237;28;20634;-52
2021/11/24 12:28:31;;;;;;;28.73;20.07;;;9.50;99.90;;;;;;4996609;28;20249;-53
2021/11/24 12:31:03;;;;;;;26.87;19.27;;;9.60;99.90;;;;;;5000827;28;20440;-51
2021/11/24 12:33:38;;;;;;;31.00;19.57;;;9.70;99.90;;;;;;4999540;28;20266;-52
2021/11/24 12:36:12;;;;;;;27.97;18.50;;;9.50;99.90;;;;;;5001214;28;20266;-55
2021/11/24 12:38:53;;;;;;;29.37;17.97;;;9.60;99.90;;;;;;5000501;28;20235;-53
2021/11/24 12:41:27;;;;;;;27.23;17.90;;;9.50;99.90;;;;;;5001605;28;20229;-54
2021/11/24 12:43:58;;;;;;;26.20;17.13;;;9.50;99.90;;;;;;5003282;28;20223;-53
2021/11/24 12:46:27;;;;;;;25.93;17.57;;;9.50;99.90;;;;;;4999971;28;20208;-52
2021/11/24 12:49:16;;;;;;;26.67;17.83;;;9.50;99.90;;;;;;5001394;28;20679;-55
2021/11/24 12:51:47;;;;;;;25.33;16.50;;;9.40;99.90;;;;;;5000093;28;20645;-52